sensor_id;sensor_type;location;lat;lon;timestamp;temperature;humidity
27200;DHT22;14714;48.106;11.546;2023-08-31T00:01:32;13.10;99.90
27200;DHT22;14714;48.106;11.546;2023-08-31T00:03:59;13.00;99.90
27200;DHT22;14714;48.106;11.546;2023-08-31T00:06:26;13.00;99.90
27200;DHT22;14714;48.106;11.546;2023-08-31T00:08:53;13.00;99.90
27200;DHT22;14714;48.106;11.546;2023-08-31T00:11:20;13.00;99.90
27200;DHT22;14714;48.106;11.546;2023-08-31T00:13:47;12.90;99.90
27200;DHT22;14714;48.106;11.546;2023-08-31T00:16:14;12.90;99.90
27200;DHT22;14714;48.106;11.546;2023-08-31T00:18:41;12.90;99.90
27200;DHT22;14714;48.106;11.546;2023-08-31T00:21:07;12.80;99.90
27200;DHT22;14714;48.106;11.546;2023-08-31T00:23:36;12.80;99.90
27200;DHT22;14714;48.106;11.546;2023-08-31T00:26:04;12.70;99.90
27200;DHT22;14714;48.106;11.546;2023-08-31T00:28:31;12.70;99.90
27200;DHT22;14714;48.106;11.546;2023-08-31T00:31:00;12.60;99.90
27200;DHT22;14714;48.106;11.546;2023-08-31T00:33:30;12.60;99.90
27200;DHT22;14714;48.106;11.546;2023-08-31T00:36:00;12.60;99.90
27200;DHT22;14714;48.106;11.546;2023-08-31T00:38:30;12.50;99.90
27200;DHT22;14714;48.106;11.546;2023-08-31T00:40:57;12.50;99.90
27200;DHT22;14714;48.106;11.546;2023-08-31T00:43:24;12.40;99.90
27200;DHT22;14714;48.106;11.546;2023-08-31T00:45:51;12.40;99.90
27200;DHT22;14714;48.106;11.546;2023-08-31T00:48:22;12.40;99.90
27200;DHT22;14714;48.106;11.546;2023-08-31T00:50:49;12.40;99.90
27200;DHT22;14714;48.106;11.546;2023-08-31T00:53:17;12.40;99.90
27200;DHT22;14714;48.106;11.546;2023-08-31T00:55:44;12.30;99.90
27200;DHT22;14714;48.106;11.546;2023-08-31T00:58:11;12.30;99.90
27200;DHT22;14714;48.106;11.546;2023-08-31T01:11:24;12.30;99.90
27200;DHT22;14714;48.106;11.546;2023-08-31T01:14:00;12.30;99.90
27200;DHT22;14714;48.106;11.546;2023-08-31T01:16:29;12.30;99.90
27200;DHT22;14714;48.106;11.546;2023-08-31T01:19:01;12.30;99.90
27200;DHT22;14714;48.106;11.546;2023-08-31T01:21:33;12.30;99.90
27200;DHT22;14714;48.106;11.546;2023-08-31T01:24:03;12.30;99.90
27200;DHT22;14714;48.106;11.546;2023-08-31T01:26:31;12.40;99.90
27200;DHT22;14714;48.106;11.546;2023-08-31T01:28:58;12.30;99.90
27200;DHT22;14714;48.106;11.546;2023-08-31T01:31:25;12.30;99.90
27200;DHT22;14714;48.106;11.546;2023-08-31T01:33:52;12.30;99.90
27200;DHT22;14714;48.106;11.546;2023-08-31T01:36:29;12.30;99.90
27200;DHT22;14714;48.106;11.546;2023-08-31T01:41:43;12.40;99.90
27200;DHT22;14714;48.106;11.546;2023-08-31T01:44:11;12.40;99.90
27200;DHT22;14714;48.106;11.546;2023-08-31T01:46:40;12.50;99.90
27200;DHT22;14714;48.106;11.546;2023-08-31T01:49:09;12.60;99.90
27200;DHT22;14714;48.106;11.546;2023-08-31T01:51:36;12.70;99.90
27200;DHT22;14714;48.106;11.546;2023-08-31T01:54:03;12.70;99.90
27200;DHT22;14714;48.106;11.546;2023-08-31T01:56:29;12.80;99.90
27200;DHT22;14714;48.106;11.546;2023-08-31T01:58:56;12.80;99.90
27200;DHT22;14714;48.106;11.546;2023-08-31T02:01:23;12.90;99.90
27200;DHT22;14714;48.106;11.546;2023-08-31T02:03:50;13.00;99.90
27200;DHT22;14714;48.106;11.546;2023-08-31T02:06:17;13.00;99.90
27200;DHT22;14714;48.106;11.546;2023-08-31T02:08:43;13.10;99.90
27200;DHT22;14714;48.106;11.546;2023-08-31T02:11:13;13.10;99.90
27200;DHT22;14714;48.106;11.546;2023-08-31T02:13:41;13.10;99.90
27200;DHT22;14714;48.106;11.546;2023-08-31T02:16:08;13.20;99.90
27200;DHT22;14714;48.106;11.546;2023-08-31T02:18:35;13.20;99.90
27200;DHT22;14714;48.106;11.546;2023-08-31T02:21:02;13.20;99.90
27200;DHT22;14714;48.106;11.546;2023-08-31T02:23:30;13.20;99.90
27200;DHT22;14714;48.106;11.546;2023-08-31T02:25:57;13.30;99.90
27200;DHT22;14714;48.106;11.546;2023-08-31T02:28:24;13.30;99.90
27200;DHT22;14714;48.106;11.546;2023-08-31T02:30:57;13.40;99.90
27200;DHT22;14714;48.106;11.546;2023-08-31T02:33:25;13.40;99.90
27200;DHT22;14714;48.106;11.546;2023-08-31T02:35:53;13.40;99.90
27200;DHT22;14714;48.106;11.546;2023-08-31T02:38:19;13.40;99.90
27200;DHT22;14714;48.106;11.546;2023-08-31T02:40:46;13.40;99.90
27200;DHT22;14714;48.106;11.546;2023-08-31T02:43:14;13.40;99.90
27200;DHT22;14714;48.106;11.546;2023-08-31T02:45:40;13.40;99.90
27200;DHT22;14714;48.106;11.546;2023-08-31T02:48:07;13.40;99.90
27200;DHT22;14714;48.106;11.546;2023-08-31T02:50:34;13.30;99.90
27200;DHT22;14714;48.106;11.546;2023-08-31T02:53:01;13.30;99.90
27200;DHT22;14714;48.106;11.546;2023-08-31T02:55:28;13.30;99.90
27200;DHT22;14714;48.106;11.546;2023-08-31T02:57:55;13.20;99.90
27200;DHT22;14714;48.106;11.546;2023-08-31T03:00:21;13.20;99.90
27200;DHT22;14714;48.106;11.546;2023-08-31T03:02:48;13.20;99.90
27200;DHT22;14714;48.106;11.546;2023-08-31T03:05:18;13.20;99.90
27200;DHT22;14714;48.106;11.546;2023-08-31T03:07:45;13.10;99.90
27200;DHT22;14714;48.106;11.546;2023-08-31T03:10:12;13.10;99.90
27200;DHT22;14714;48.106;11.546;2023-08-31T03:12:39;13.10;99.90
27200;DHT22;14714;48.106;11.546;2023-08-31T03:15:05;13.10;99.90
27200;DHT22;14714;48.106;11.546;2023-08-31T03:17:32;13.10;99.90
27200;DHT22;14714;48.106;11.546;2023-08-31T03:19:59;13.00;99.90
27200;DHT22;14714;48.106;11.546;2023-08-31T03:22:26;13.00;99.90
27200;DHT22;14714;48.106;11.546;2023-08-31T03:24:53;13.00;99.90
27200;DHT22;14714;48.106;11.546;2023-08-31T03:27:19;13.00;99.90
27200;DHT22;14714;48.106;11.546;2023-08-31T03:29:46;13.00;99.90
27200;DHT22;14714;48.106;11.546;2023-08-31T03:32:13;12.90;99.90
27200;DHT22;14714;48.106;11.546;2023-08-31T03:34:40;12.90;99.90
27200;DHT22;14714;48.106;11.546;2023-08-31T03:37:07;12.90;99.90
27200;DHT22;14714;48.106;11.546;2023-08-31T03:39:34;12.90;99.90
27200;DHT22;14714;48.106;11.546;2023-08-31T03:42:01;12.90;99.90
27200;DHT22;14714;48.106;11.546;2023-08-31T03:44:27;12.90;99.90
27200;DHT22;14714;48.106;11.546;2023-08-31T03:46:54;12.90;99.90
27200;DHT22;14714;48.106;11.546;2023-08-31T03:49:21;12.90;99.90
27200;DHT22;14714;48.106;11.546;2023-08-31T03:51:47;12.80;99.90
27200;DHT22;14714;48.106;11.546;2023-08-31T03:54:15;12.80;99.90
27200;DHT22;14714;48.106;11.546;2023-08-31T03:56:41;12.80;99.90
27200;DHT22;14714;48.106;11.546;2023-08-31T03:59:08;12.80;99.90
27200;DHT22;14714;48.106;11.546;2023-08-31T04:01:35;12.80;99.90
27200;DHT22;14714;48.106;11.546;2023-08-31T04:04:02;12.80;99.90
27200;DHT22;14714;48.106;11.546;2023-08-31T04:06:30;12.80;99.90
27200;DHT22;14714;48.106;11.546;2023-08-31T04:08:57;12.80;99.90
27200;DHT22;14714;48.106;11.546;2023-08-31T04:11:24;12.80;99.90
27200;DHT22;14714;48.106;11.546;2023-08-31T04:13:51;12.80;99.90
27200;DHT22;14714;48.106;11.546;2023-08-31T04:16:18;12.80;99.90
27200;DHT22;14714;48.106;11.546;2023-08-31T04:18:45;12.80;99.90
27200;DHT22;14714;48.106;11.546;2023-08-31T04:21:17;12.70;99.90
27200;DHT22;14714;48.106;11.546;2023-08-31T04:23:45;12.70;99.90
27200;DHT22;14714;48.106;11.546;2023-08-31T04:26:12;12.70;99.90
27200;DHT22;14714;48.106;11.546;2023-08-31T04:28:39;12.70;99.90
27200;DHT22;14714;48.106;11.546;2023-08-31T04:31:06;12.70;99.90
27200;DHT22;14714;48.106;11.546;2023-08-31T04:33:34;12.80;99.90
27200;DHT22;14714;48.106;11.546;2023-08-31T04:36:01;12.80;99.90
27200;DHT22;14714;48.106;11.546;2023-08-31T04:38:27;12.80;99.90
27200;DHT22;14714;48.106;11.546;2023-08-31T04:40:57;12.80;99.90
27200;DHT22;14714;48.106;11.546;2023-08-31T04:43:24;12.80;99.90
27200;DHT22;14714;48.106;11.546;2023-08-31T04:45:51;12.80;99.90
27200;DHT22;14714;48.106;11.546;2023-08-31T04:48:18;12.80;99.90
27200;DHT22;14714;48.106;11.546;2023-08-31T04:50:45;12.80;99.90
27200;DHT22;14714;48.106;11.546;2023-08-31T04:53:12;12.80;99.90
27200;DHT22;14714;48.106;11.546;2023-08-31T04:55:39;12.80;99.90
27200;DHT22;14714;48.106;11.546;2023-08-31T04:58:06;12.80;99.90
27200;DHT22;14714;48.106;11.546;2023-08-31T05:00:32;12.90;99.90
27200;DHT22;14714;48.106;11.546;2023-08-31T05:02:59;12.80;99.90
27200;DHT22;14714;48.106;11.546;2023-08-31T05:05:26;12.80;99.90
27200;DHT22;14714;48.106;11.546;2023-08-31T05:07:53;12.90;99.90
27200;DHT22;14714;48.106;11.546;2023-08-31T05:10:19;12.90;99.90
27200;DHT22;14714;48.106;11.546;2023-08-31T05:12:46;13.00;99.90
27200;DHT22;14714;48.106;11.546;2023-08-31T05:15:13;13.00;99.90
27200;DHT22;14714;48.106;11.546;2023-08-31T05:17:40;13.00;99.90
27200;DHT22;14714;48.106;11.546;2023-08-31T05:20:07;13.10;99.90
27200;DHT22;14714;48.106;11.546;2023-08-31T05:22:35;13.20;99.90
27200;DHT22;14714;48.106;11.546;2023-08-31T05:25:02;13.20;99.90
27200;DHT22;14714;48.106;11.546;2023-08-31T05:27:28;13.20;99.90
27200;DHT22;14714;48.106;11.546;2023-08-31T05:29:55;13.30;99.90
27200;DHT22;14714;48.106;11.546;2023-08-31T05:32:22;13.40;99.90
27200;DHT22;14714;48.106;11.546;2023-08-31T05:34:48;13.40;99.90
27200;DHT22;14714;48.106;11.546;2023-08-31T05:37:15;13.40;99.90
27200;DHT22;14714;48.106;11.546;2023-08-31T05:39:42;13.40;99.90
27200;DHT22;14714;48.106;11.546;2023-08-31T05:42:13;13.50;99.90
27200;DHT22;14714;48.106;11.546;2023-08-31T05:44:40;13.60;99.90
27200;DHT22;14714;48.106;11.546;2023-08-31T05:47:07;13.80;99.90
27200;DHT22;14714;48.106;11.546;2023-08-31T05:49:33;13.90;99.90
27200;DHT22;14714;48.106;11.546;2023-08-31T05:52:00;14.00;99.90
27200;DHT22;14714;48.106;11.546;2023-08-31T05:54:27;14.10;99.90
27200;DHT22;14714;48.106;11.546;2023-08-31T05:56:54;14.20;99.90
27200;DHT22;14714;48.106;11.546;2023-08-31T05:59:20;14.30;99.90
27200;DHT22;14714;48.106;11.546;2023-08-31T06:01:47;14.40;99.90
27200;DHT22;14714;48.106;11.546;2023-08-31T06:04:15;14.40;99.90
27200;DHT22;14714;48.106;11.546;2023-08-31T06:06:42;14.40;99.90
27200;DHT22;14714;48.106;11.546;2023-08-31T06:09:09;14.40;99.90
27200;DHT22;14714;48.106;11.546;2023-08-31T06:11:35;14.40;99.90
27200;DHT22;14714;48.106;11.546;2023-08-31T06:14:02;14.50;99.90
27200;DHT22;14714;48.106;11.546;2023-08-31T06:16:30;14.50;99.90
27200;DHT22;14714;48.106;11.546;2023-08-31T06:18:57;14.60;99.90
27200;DHT22;14714;48.106;11.546;2023-08-31T06:21:23;14.60;99.90
27200;DHT22;14714;48.106;11.546;2023-08-31T06:23:50;14.70;99.90
27200;DHT22;14714;48.106;11.546;2023-08-31T06:26:17;14.80;99.90
27200;DHT22;14714;48.106;11.546;2023-08-31T06:28:43;14.80;99.90
27200;DHT22;14714;48.106;11.546;2023-08-31T06:31:10;14.80;99.90
27200;DHT22;14714;48.106;11.546;2023-08-31T06:33:37;14.90;99.90
27200;DHT22;14714;48.106;11.546;2023-08-31T06:36:03;14.90;99.90
27200;DHT22;14714;48.106;11.546;2023-08-31T06:38:30;15.00;99.90
27200;DHT22;14714;48.106;11.546;2023-08-31T06:40:57;15.00;99.90
27200;DHT22;14714;48.106;11.546;2023-08-31T06:43:25;15.10;99.90
27200;DHT22;14714;48.106;11.546;2023-08-31T06:45:55;15.10;99.90
27200;DHT22;14714;48.106;11.546;2023-08-31T06:48:32;15.20;99.90
27200;DHT22;14714;48.106;11.546;2023-08-31T06:50:59;15.30;99.90
27200;DHT22;14714;48.106;11.546;2023-08-31T06:53:26;15.40;99.90
27200;DHT22;14714;48.106;11.546;2023-08-31T06:55:53;15.40;99.90
27200;DHT22;14714;48.106;11.546;2023-08-31T06:58:20;15.50;99.90
27200;DHT22;14714;48.106;11.546;2023-08-31T07:00:46;15.40;99.90
27200;DHT22;14714;48.106;11.546;2023-08-31T07:03:14;15.50;99.90
27200;DHT22;14714;48.106;11.546;2023-08-31T07:05:42;15.40;99.90
27200;DHT22;14714;48.106;11.546;2023-08-31T07:08:09;15.40;99.90
27200;DHT22;14714;48.106;11.546;2023-08-31T07:10:36;15.40;99.90
27200;DHT22;14714;48.106;11.546;2023-08-31T07:13:03;15.30;99.90
27200;DHT22;14714;48.106;11.546;2023-08-31T07:15:30;15.30;99.90
27200;DHT22;14714;48.106;11.546;2023-08-31T07:17:58;15.30;99.90
27200;DHT22;14714;48.106;11.546;2023-08-31T07:20:25;15.30;99.90
27200;DHT22;14714;48.106;11.546;2023-08-31T07:22:52;15.40;99.90
27200;DHT22;14714;48.106;11.546;2023-08-31T07:25:19;15.40;99.90
27200;DHT22;14714;48.106;11.546;2023-08-31T07:27:46;15.40;99.90
27200;DHT22;14714;48.106;11.546;2023-08-31T07:30:13;15.60;99.90
27200;DHT22;14714;48.106;11.546;2023-08-31T07:32:40;15.90;99.90
27200;DHT22;14714;48.106;11.546;2023-08-31T07:35:06;16.20;99.90
27200;DHT22;14714;48.106;11.546;2023-08-31T07:37:33;16.50;99.90
27200;DHT22;14714;48.106;11.546;2023-08-31T07:40:01;16.70;99.90
27200;DHT22;14714;48.106;11.546;2023-08-31T07:42:27;16.80;99.90
27200;DHT22;14714;48.106;11.546;2023-08-31T07:44:55;16.90;99.90
27200;DHT22;14714;48.106;11.546;2023-08-31T07:47:22;16.90;99.90
27200;DHT22;14714;48.106;11.546;2023-08-31T07:49:49;17.00;99.90
27200;DHT22;14714;48.106;11.546;2023-08-31T07:52:15;17.00;99.90
27200;DHT22;14714;48.106;11.546;2023-08-31T07:54:42;16.90;99.90
27200;DHT22;14714;48.106;11.546;2023-08-31T07:57:09;16.90;99.90
27200;DHT22;14714;48.106;11.546;2023-08-31T07:59:36;17.10;99.90
27200;DHT22;14714;48.106;11.546;2023-08-31T08:02:06;17.60;99.90
27200;DHT22;14714;48.106;11.546;2023-08-31T08:04:33;18.80;99.90
27200;DHT22;14714;48.106;11.546;2023-08-31T08:06:59;19.80;99.90
27200;DHT22;14714;48.106;11.546;2023-08-31T08:09:26;20.70;99.90
27200;DHT22;14714;48.106;11.546;2023-08-31T08:11:53;22.30;99.90
27200;DHT22;14714;48.106;11.546;2023-08-31T08:14:20;23.70;99.90
27200;DHT22;14714;48.106;11.546;2023-08-31T08:16:46;24.60;99.90
27200;DHT22;14714;48.106;11.546;2023-08-31T08:19:13;25.00;99.80
27200;DHT22;14714;48.106;11.546;2023-08-31T08:21:40;24.90;99.40
27200;DHT22;14714;48.106;11.546;2023-08-31T08:24:07;24.70;98.50
27200;DHT22;14714;48.106;11.546;2023-08-31T08:26:33;24.70;97.60
27200;DHT22;14714;48.106;11.546;2023-08-31T08:29:00;24.70;95.90
27200;DHT22;14714;48.106;11.546;2023-08-31T08:31:27;24.70;96.10
27200;DHT22;14714;48.106;11.546;2023-08-31T08:33:54;24.40;96.10
27200;DHT22;14714;48.106;11.546;2023-08-31T08:36:20;23.90;93.30
27200;DHT22;14714;48.106;11.546;2023-08-31T08:38:47;23.00;95.20
27200;DHT22;14714;48.106;11.546;2023-08-31T08:41:14;22.30;96.70
27200;DHT22;14714;48.106;11.546;2023-08-31T08:43:42;21.70;99.90
27200;DHT22;14714;48.106;11.546;2023-08-31T08:46:09;21.40;99.90
27200;DHT22;14714;48.106;11.546;2023-08-31T08:48:36;21.10;99.90
27200;DHT22;14714;48.106;11.546;2023-08-31T08:51:04;20.80;99.90
27200;DHT22;14714;48.106;11.546;2023-08-31T08:53:31;20.50;99.90
27200;DHT22;14714;48.106;11.546;2023-08-31T08:55:58;20.30;99.90
27200;DHT22;14714;48.106;11.546;2023-08-31T08:58:25;20.50;99.90
27200;DHT22;14714;48.106;11.546;2023-08-31T09:00:53;20.80;99.90
27200;DHT22;14714;48.106;11.546;2023-08-31T09:03:23;21.40;99.90
27200;DHT22;14714;48.106;11.546;2023-08-31T09:05:50;22.10;99.90
27200;DHT22;14714;48.106;11.546;2023-08-31T09:08:24;22.50;98.60
27200;DHT22;14714;48.106;11.546;2023-08-31T09:10:51;22.60;97.70
27200;DHT22;14714;48.106;11.546;2023-08-31T09:13:19;22.50;97.30
27200;DHT22;14714;48.106;11.546;2023-08-31T09:15:47;22.20;97.40
27200;DHT22;14714;48.106;11.546;2023-08-31T09:20:45;21.50;96.50
27200;DHT22;14714;48.106;11.546;2023-08-31T09:23:13;21.00;98.70
27200;DHT22;14714;48.106;11.546;2023-08-31T09:25:41;20.50;98.70
27200;DHT22;14714;48.106;11.546;2023-08-31T09:28:09;20.20;99.90
27200;DHT22;14714;48.106;11.546;2023-08-31T09:30:37;19.80;99.90
27200;DHT22;14714;48.106;11.546;2023-08-31T09:33:04;19.60;99.90
27200;DHT22;14714;48.106;11.546;2023-08-31T09:35:31;19.50;99.90
27200;DHT22;14714;48.106;11.546;2023-08-31T09:37:58;19.40;99.90
27200;DHT22;14714;48.106;11.546;2023-08-31T09:40:25;19.40;99.90
27200;DHT22;14714;48.106;11.546;2023-08-31T09:42:52;19.50;99.90
27200;DHT22;14714;48.106;11.546;2023-08-31T09:45:25;19.90;99.90
27200;DHT22;14714;48.106;11.546;2023-08-31T09:48:11;20.40;99.90
27200;DHT22;14714;48.106;11.546;2023-08-31T09:50:38;20.80;99.90
27200;DHT22;14714;48.106;11.546;2023-08-31T09:53:06;21.00;99.90
27200;DHT22;14714;48.106;11.546;2023-08-31T09:55:36;21.30;99.90
27200;DHT22;14714;48.106;11.546;2023-08-31T09:58:05;21.60;98.50
27200;DHT22;14714;48.106;11.546;2023-08-31T10:00:41;21.80;99.90
27200;DHT22;14714;48.106;11.546;2023-08-31T10:03:08;21.80;97.00
27200;DHT22;14714;48.106;11.546;2023-08-31T10:05:38;21.70;97.40
27200;DHT22;14714;48.106;11.546;2023-08-31T10:08:05;21.40;96.60
27200;DHT22;14714;48.106;11.546;2023-08-31T10:10:33;21.20;97.90
27200;DHT22;14714;48.106;11.546;2023-08-31T10:13:01;21.00;97.50
27200;DHT22;14714;48.106;11.546;2023-08-31T10:15:31;20.70;98.00
27200;DHT22;14714;48.106;11.546;2023-08-31T10:17:59;20.50;98.80
27200;DHT22;14714;48.106;11.546;2023-08-31T10:20:27;20.30;99.90
27200;DHT22;14714;48.106;11.546;2023-08-31T10:23:04;20.00;99.90
27200;DHT22;14714;48.106;11.546;2023-08-31T10:28:17;19.70;99.90
27200;DHT22;14714;48.106;11.546;2023-08-31T10:30:59;19.70;99.90
27200;DHT22;14714;48.106;11.546;2023-08-31T10:33:27;19.70;99.90
27200;DHT22;14714;48.106;11.546;2023-08-31T10:35:57;19.60;99.90
27200;DHT22;14714;48.106;11.546;2023-08-31T10:38:25;19.60;99.90
27200;DHT22;14714;48.106;11.546;2023-08-31T10:46:16;19.30;99.90
27200;DHT22;14714;48.106;11.546;2023-08-31T10:49:18;19.10;99.90
27200;DHT22;14714;48.106;11.546;2023-08-31T10:51:42;18.90;99.90
27200;DHT22;14714;48.106;11.546;2023-08-31T10:54:13;18.50;99.90
27200;DHT22;14714;48.106;11.546;2023-08-31T10:59:22;18.10;99.90
27200;DHT22;14714;48.106;11.546;2023-08-31T11:01:53;18.00;99.90
27200;DHT22;14714;48.106;11.546;2023-08-31T11:04:24;17.80;99.90
27200;DHT22;14714;48.106;11.546;2023-08-31T11:09:37;18.00;99.90
27200;DHT22;14714;48.106;11.546;2023-08-31T11:12:04;18.30;99.90
27200;DHT22;14714;48.106;11.546;2023-08-31T11:14:30;18.50;99.90
27200;DHT22;14714;48.106;11.546;2023-08-31T11:16:57;18.60;99.90
27200;DHT22;14714;48.106;11.546;2023-08-31T11:19:25;18.60;99.90
27200;DHT22;14714;48.106;11.546;2023-08-31T11:21:52;18.50;99.90
27200;DHT22;14714;48.106;11.546;2023-08-31T11:24:20;18.40;99.90
27200;DHT22;14714;48.106;11.546;2023-08-31T11:26:51;18.20;99.90
27200;DHT22;14714;48.106;11.546;2023-08-31T11:29:18;18.00;99.90
27200;DHT22;14714;48.106;11.546;2023-08-31T11:31:44;17.80;99.90
27200;DHT22;14714;48.106;11.546;2023-08-31T11:34:12;17.70;99.90
27200;DHT22;14714;48.106;11.546;2023-08-31T11:36:39;17.50;99.90
27200;DHT22;14714;48.106;11.546;2023-08-31T11:39:08;17.50;99.90
27200;DHT22;14714;48.106;11.546;2023-08-31T11:41:35;17.70;99.90
27200;DHT22;14714;48.106;11.546;2023-08-31T11:44:04;18.10;99.90
27200;DHT22;14714;48.106;11.546;2023-08-31T11:46:31;18.50;99.90
27200;DHT22;14714;48.106;11.546;2023-08-31T11:48:59;18.90;99.90
27200;DHT22;14714;48.106;11.546;2023-08-31T11:51:26;19.30;99.90
27200;DHT22;14714;48.106;11.546;2023-08-31T11:53:56;19.70;99.90
27200;DHT22;14714;48.106;11.546;2023-08-31T11:56:25;19.80;99.90
27200;DHT22;14714;48.106;11.546;2023-08-31T11:58:51;19.90;99.90
27200;DHT22;14714;48.106;11.546;2023-08-31T12:01:30;20.10;99.90
27200;DHT22;14714;48.106;11.546;2023-08-31T12:03:57;20.50;99.90
27200;DHT22;14714;48.106;11.546;2023-08-31T12:06:24;20.60;99.90
27200;DHT22;14714;48.106;11.546;2023-08-31T12:08:51;20.50;99.90
27200;DHT22;14714;48.106;11.546;2023-08-31T12:11:18;20.30;99.90
27200;DHT22;14714;48.106;11.546;2023-08-31T12:13:45;20.10;99.90
27200;DHT22;14714;48.106;11.546;2023-08-31T12:16:12;20.00;99.90
27200;DHT22;14714;48.106;11.546;2023-08-31T12:18:39;20.10;99.90
27200;DHT22;14714;48.106;11.546;2023-08-31T12:21:05;20.10;99.90
27200;DHT22;14714;48.106;11.546;2023-08-31T12:23:32;20.10;99.90
27200;DHT22;14714;48.106;11.546;2023-08-31T12:25:59;20.00;99.90
27200;DHT22;14714;48.106;11.546;2023-08-31T12:28:26;19.90;99.90
27200;DHT22;14714;48.106;11.546;2023-08-31T12:30:53;19.80;99.40
27200;DHT22;14714;48.106;11.546;2023-08-31T12:33:21;19.70;99.90
27200;DHT22;14714;48.106;11.546;2023-08-31T12:35:48;19.50;99.90
27200;DHT22;14714;48.106;11.546;2023-08-31T12:38:15;19.40;99.90
27200;DHT22;14714;48.106;11.546;2023-08-31T12:40:41;19.40;99.90
27200;DHT22;14714;48.106;11.546;2023-08-31T12:43:08;19.30;99.90
27200;DHT22;14714;48.106;11.546;2023-08-31T12:45:36;19.40;99.90
27200;DHT22;14714;48.106;11.546;2023-08-31T12:48:03;19.40;99.90
27200;DHT22;14714;48.106;11.546;2023-08-31T12:50:30;19.50;99.90
27200;DHT22;14714;48.106;11.546;2023-08-31T12:52:57;19.70;99.90
27200;DHT22;14714;48.106;11.546;2023-08-31T12:55:25;19.80;99.90
27200;DHT22;14714;48.106;11.546;2023-08-31T12:57:52;19.90;99.90
27200;DHT22;14714;48.106;11.546;2023-08-31T13:00:19;20.10;99.90
27200;DHT22;14714;48.106;11.546;2023-08-31T13:02:45;20.20;99.90
27200;DHT22;14714;48.106;11.546;2023-08-31T13:05:12;20.30;99.90
27200;DHT22;14714;48.106;11.546;2023-08-31T13:07:39;20.30;98.10
27200;DHT22;14714;48.106;11.546;2023-08-31T13:10:06;20.30;98.10
27200;DHT22;14714;48.106;11.546;2023-08-31T13:12:33;20.20;97.80
27200;DHT22;14714;48.106;11.546;2023-08-31T13:15:00;20.10;99.00
27200;DHT22;14714;48.106;11.546;2023-08-31T13:17:27;20.10;99.90
27200;DHT22;14714;48.106;11.546;2023-08-31T13:19:54;20.10;99.90
27200;DHT22;14714;48.106;11.546;2023-08-31T13:22:21;20.20;99.60
27200;DHT22;14714;48.106;11.546;2023-08-31T13:24:48;20.40;99.90
27200;DHT22;14714;48.106;11.546;2023-08-31T13:27:15;20.50;99.90
27200;DHT22;14714;48.106;11.546;2023-08-31T13:29:42;20.40;98.00
27200;DHT22;14714;48.106;11.546;2023-08-31T13:32:09;20.20;98.70
27200;DHT22;14714;48.106;11.546;2023-08-31T13:34:36;20.10;97.50
27200;DHT22;14714;48.106;11.546;2023-08-31T13:37:03;19.90;97.50
27200;DHT22;14714;48.106;11.546;2023-08-31T13:39:31;19.80;98.20
27200;DHT22;14714;48.106;11.546;2023-08-31T13:41:58;19.80;98.00
27200;DHT22;14714;48.106;11.546;2023-08-31T13:44:24;19.90;98.40
27200;DHT22;14714;48.106;11.546;2023-08-31T13:46:51;19.90;98.00
27200;DHT22;14714;48.106;11.546;2023-08-31T13:49:18;20.00;98.90
27200;DHT22;14714;48.106;11.546;2023-08-31T13:51:44;20.20;97.60
27200;DHT22;14714;48.106;11.546;2023-08-31T13:54:12;20.10;97.70
27200;DHT22;14714;48.106;11.546;2023-08-31T13:56:38;20.00;96.20
27200;DHT22;14714;48.106;11.546;2023-08-31T13:59:05;19.90;96.80
27200;DHT22;14714;48.106;11.546;2023-08-31T14:01:32;19.80;96.30
27200;DHT22;14714;48.106;11.546;2023-08-31T14:03:59;19.70;96.40
27200;DHT22;14714;48.106;11.546;2023-08-31T14:06:26;19.60;96.20
27200;DHT22;14714;48.106;11.546;2023-08-31T14:08:53;19.60;95.90
27200;DHT22;14714;48.106;11.546;2023-08-31T14:11:20;19.50;96.40
27200;DHT22;14714;48.106;11.546;2023-08-31T14:13:47;19.50;98.20
27200;DHT22;14714;48.106;11.546;2023-08-31T14:16:14;19.40;97.50
27200;DHT22;14714;48.106;11.546;2023-08-31T14:18:40;19.40;99.20
27200;DHT22;14714;48.106;11.546;2023-08-31T14:21:08;19.40;98.20
27200;DHT22;14714;48.106;11.546;2023-08-31T14:23:40;19.40;97.00
27200;DHT22;14714;48.106;11.546;2023-08-31T14:26:07;19.30;96.60
27200;DHT22;14714;48.106;11.546;2023-08-31T14:28:36;19.30;96.10
27200;DHT22;14714;48.106;11.546;2023-08-31T14:31:06;19.20;96.10
27200;DHT22;14714;48.106;11.546;2023-08-31T14:33:34;19.30;98.30
27200;DHT22;14714;48.106;11.546;2023-08-31T14:36:00;19.30;99.90
27200;DHT22;14714;48.106;11.546;2023-08-31T14:38:27;19.40;98.40
27200;DHT22;14714;48.106;11.546;2023-08-31T14:40:55;19.50;99.10
27200;DHT22;14714;48.106;11.546;2023-08-31T14:43:21;19.60;98.60
27200;DHT22;14714;48.106;11.546;2023-08-31T14:45:48;19.80;98.80
27200;DHT22;14714;48.106;11.546;2023-08-31T14:48:16;19.90;97.30
27200;DHT22;14714;48.106;11.546;2023-08-31T14:50:43;19.90;97.70
27200;DHT22;14714;48.106;11.546;2023-08-31T14:53:10;20.00;98.40
27200;DHT22;14714;48.106;11.546;2023-08-31T14:55:37;19.90;96.60
27200;DHT22;14714;48.106;11.546;2023-08-31T14:58:04;19.90;97.90
27200;DHT22;14714;48.106;11.546;2023-08-31T15:00:32;19.90;96.70
27200;DHT22;14714;48.106;11.546;2023-08-31T15:02:59;19.80;96.90
27200;DHT22;14714;48.106;11.546;2023-08-31T15:05:26;19.70;95.80
27200;DHT22;14714;48.106;11.546;2023-08-31T15:07:57;19.60;95.30
27200;DHT22;14714;48.106;11.546;2023-08-31T15:10:23;19.60;97.00
27200;DHT22;14714;48.106;11.546;2023-08-31T15:12:50;19.50;96.20
27200;DHT22;14714;48.106;11.546;2023-08-31T15:15:18;19.50;95.40
27200;DHT22;14714;48.106;11.546;2023-08-31T15:17:45;19.40;97.80
27200;DHT22;14714;48.106;11.546;2023-08-31T15:20:12;19.40;97.50
27200;DHT22;14714;48.106;11.546;2023-08-31T15:22:38;19.30;97.10
27200;DHT22;14714;48.106;11.546;2023-08-31T15:25:05;19.30;97.90
27200;DHT22;14714;48.106;11.546;2023-08-31T15:27:33;19.30;95.40
27200;DHT22;14714;48.106;11.546;2023-08-31T15:29:59;19.20;96.50
27200;DHT22;14714;48.106;11.546;2023-08-31T15:32:26;19.00;94.60
27200;DHT22;14714;48.106;11.546;2023-08-31T15:37:42;19.00;97.70
27200;DHT22;14714;48.106;11.546;2023-08-31T15:40:09;18.90;95.30
27200;DHT22;14714;48.106;11.546;2023-08-31T15:42:36;18.80;94.80
27200;DHT22;14714;48.106;11.546;2023-08-31T15:45:03;18.80;94.90
27200;DHT22;14714;48.106;11.546;2023-08-31T15:47:30;18.70;95.50
27200;DHT22;14714;48.106;11.546;2023-08-31T15:49:57;18.70;96.90